This is the latest recevied weather packets stored in our database for station/object W4SMH. If no packets are shown the sender has not sent any weather packets the latest 10 day(s).
| Time | Temp. | Humidity | Pressure | Rain* | Wind** | Luminosity | Snow |
|---|---|---|---|---|---|---|---|
| 1777718773 | -1.11° C | 87% | 1017.6 hPa | 0 mm | - | 0 W/m² | - |
| 1777718747 | -1.11° C | 87% | 1017.5 hPa | 0 mm | - | 0 W/m² | - |
| 1777718401 | -1.11° C | 87% | 1017.5 hPa | 0 mm | - | 0 W/m² | - |
| 1777718342 | -1.11° C | 87% | 1017.5 hPa | 0 mm | - | 0 W/m² | - |
| 1777717892 | -1.11° C | 87% | 1017.5 hPa | 0 mm | - | 0 W/m² | - |
| 1777717866 | -1.11° C | 87% | 1017.5 hPa | 0 mm | - | 0 W/m² | - |
| 1777717834 | -1.11° C | 87% | 1017.4 hPa | 0 mm | - | 0 W/m² | - |
| 1777717582 | -1.11° C | 87% | 1017.4 hPa | 0 mm | - | 0 W/m² | - |
| 1777717525 | -1.11° C | 87% | 1017.4 hPa | 0 mm | - | 0 W/m² | - |
| 1777717408 | -0.56° C | 87% | 1017.5 hPa | 0 mm | - | 0 W/m² | - |
| 1777716455 | -0.56° C | 87% | 1017.4 hPa | 0 mm | - | 0 W/m² | - |
| 1777715942 | 11.11° C | 65% | 1014.7 hPa | 0 mm | - | 504 W/m² | - |
| 1777715909 | 10.56° C | 69% | 1014.9 hPa | 0 mm | - | 452 W/m² | - |
| 1777715732 | -0.56° C | 87% | 1017.5 hPa | 0 mm | - | 0 W/m² | - |
| 1777715388 | -0.56° C | 86% | 1017.5 hPa | 0 mm | - | 0 W/m² | - |
| 1777714710 | -0.56° C | 86% | 1017.5 hPa | 0 mm | - | 0 W/m² | - |
| 1777714254 | -0.56° C | 86% | 1017.4 hPa | 0 mm | - | 0 W/m² | - |
| 1777713669 | 9.44° C | 72% | 1015.1 hPa | 0 mm | - | 308 W/m² | - |
| 1777713637 | -0.56° C | 86% | 1017.5 hPa | 0 mm | - | 0 W/m² | - |
| 1777713150 | -0.56° C | 86% | 1017.4 hPa | 0 mm | - | 0 W/m² | - |
| 1777712959 | -0.56° C | 86% | 1017.4 hPa | 0 mm | - | 0 W/m² | - |
| 1777711999 | -0.56° C | 86% | 1017.4 hPa | 0 mm | - | 0 W/m² | - |
| 1777711429 | -0.56° C | 86% | 1017.3 hPa | 0 mm | - | 0 W/m² | - |
| 1777711371 | -0.56° C | 86% | 1017.4 hPa | 0 mm | - | 0 W/m² | - |
| 1777711314 | -0.56° C | 86% | 1017.3 hPa | 0 mm | - | 0 W/m² | - |
* Rain latest hour (hover to see other rain measurements)
** Current wind speed in m/s (hover to see current wind gust speed)